Time;durP1;ratioP1;P1;durP2;ratioP2;P2;SDS_P1;SDS_P2;PMS_P1;PMS_P2;Temp;Humidity;BMP_temperature;BMP_pressure;BME280_temperature;BME280_humidity;BME280_pressure;Samples;Min_cycle;Max_cycle;Signal;HPM_P1;HPM_P2
2021/08/14 00:00:58;;;;;;;6.53;3.53;;;;;;;18.58;85.18;101225.75;5299010;27;20273;-77
2021/08/14 00:03:30;;;;;;;8.00;3.50;;;;;;;18.53;85.58;101221.66;5289878;27;20281;-77
2021/08/14 00:06:00;;;;;;;8.95;4.00;;;;;;;18.41;85.86;101227.63;5280649;27;20425;-77
2021/08/14 00:08:30;;;;;;;9.07;3.50;;;;;;;18.39;86.25;101225.09;5293835;27;20027;-78
2021/08/14 00:11:00;;;;;;;15.40;6.38;;;;;;;18.04;86.29;101228.81;5294664;27;20038;-79
2021/08/14 00:13:31;;;;;;;11.30;3.70;;;;;;;17.69;86.15;101226.41;5299739;27;20074;-77
2021/08/14 00:16:01;;;;;;;43.78;20.38;;;;;;;17.49;89.77;101229.28;5297995;27;20539;-76
2021/08/14 00:18:31;;;;;;;156.73;68.68;;;;;;;17.58;89.40;101221.72;5294518;27;20027;-78
2021/08/14 00:21:03;;;;;;;70.75;29.70;;;;;;;17.93;86.93;101225.94;5299866;27;20062;-78
2021/08/14 00:23:34;;;;;;;162.43;64.65;;;;;;;17.77;87.96;101229.50;5298206;27;20030;-77
2021/08/14 00:26:04;;;;;;;20.25;9.02;;;;;;;17.63;88.74;101230.25;5300571;27;20027;-78
2021/08/14 00:28:36;;;;;;;8.63;4.07;;;;;;;17.26;91.41;101226.97;5297654;27;20366;-78
2021/08/14 00:31:06;;;;;;;8.85;3.92;;;;;;;17.35;91.51;101230.00;5290771;27;20031;-76
2021/08/14 00:33:36;;;;;;;10.20;3.88;;;;;;;17.56;89.95;101215.66;5297224;27;20029;-78
2021/08/14 00:36:07;;;;;;;6.63;3.67;;;;;;;17.45;90.45;101211.91;5298087;28;20023;-78
2021/08/14 00:38:37;;;;;;;8.75;4.00;;;;;;;17.20;92.78;101216.72;5289711;27;20334;-77
2021/08/14 00:41:07;;;;;;;7.40;3.53;;;;;;;17.37;91.96;101219.34;5299590;28;20038;-78
2021/08/14 00:43:39;;;;;;;8.98;4.30;;;;;;;17.64;90.40;101225.81;5297445;28;20357;-76
2021/08/14 00:46:10;;;;;;;7.10;4.25;;;;;;;17.48;92.18;101223.13;5300038;28;20039;-77
2021/08/14 00:48:40;;;;;;;8.00;4.60;;;;;;;17.71;90.20;101216.59;5300965;28;20513;-76
2021/08/14 00:51:11;;;;;;;7.88;4.45;;;;;;;17.34;92.36;101217.72;5297945;28;20027;-78
2021/08/14 00:53:41;;;;;;;5.70;3.30;;;;;;;17.15;94.10;101210.81;5300835;28;20031;-79
2021/08/14 00:56:11;;;;;;;7.72;3.92;;;;;;;17.00;94.74;101214.25;5297398;28;20100;-77
2021/08/14 00:58:41;;;;;;;8.60;3.78;;;;;;;16.92;95.75;101222.56;5302981;28;20023;-79
2021/08/14 01:01:12;;;;;;;6.43;3.55;;;;;;;17.26;93.12;101222.53;5306096;28;20031;-77
2021/08/14 01:03:42;;;;;;;6.32;3.70;;;;;;;17.30;91.58;101217.97;5300034;28;20500;-76
2021/08/14 01:06:16;;;;;;;8.13;4.47;;;;;;;16.99;93.08;101220.47;5305578;27;20429;-77
2021/08/14 01:08:47;;;;;;;19.02;12.55;;;;;;;17.05;93.51;101220.16;5294375;28;20504;-76
2021/08/14 01:11:17;;;;;;;18.33;9.48;;;;;;;17.12;92.57;101221.56;5305852;27;20083;-76
2021/08/14 01:13:48;;;;;;;9.90;5.93;;;;;;;16.87;95.45;101213.19;5309810;27;20047;-75
2021/08/14 01:16:18;;;;;;;7.72;4.35;;;;;;;16.77;94.66;101211.97;5304815;28;20019;-75
2021/08/14 01:18:48;;;;;;;11.48;5.05;;;;;;;16.62;96.40;101210.09;5307540;27;20519;-75
2021/08/14 01:21:20;;;;;;;7.65;4.38;;;;;;;16.71;95.56;101214.03;5298774;28;20042;-76
2021/08/14 01:23:55;;;;;;;8.32;4.55;;;;;;;16.86;93.43;101206.19;5298315;27;20027;-76
2021/08/14 01:26:25;;;;;;;8.13;4.10;;;;;;;16.58;95.40;101216.41;5305298;28;20030;-77
2021/08/14 01:28:56;;;;;;;8.13;4.00;;;;;;;16.69;95.27;101208.81;5305722;28;20269;-76
2021/08/14 01:31:26;;;;;;;7.60;4.68;;;;;;;16.78;94.69;101217.13;5305891;28;20352;-77
2021/08/14 01:33:57;;;;;;;9.75;4.15;;;;;;;16.75;94.53;101211.16;5305662;28;20019;-76
2021/08/14 01:36:27;;;;;;;7.15;4.00;;;;;;;16.85;93.87;101215.03;5303227;28;20011;-76
2021/08/14 01:39:00;;;;;;;9.73;4.60;;;;;;;16.87;94.25;101210.53;5298166;28;20053;-75
2021/08/14 01:41:31;;;;;;;8.40;3.95;;;;;;;16.95;93.75;101205.72;5295445;28;20433;-77
2021/08/14 01:44:02;;;;;;;6.20;3.88;;;;;;;16.98;93.86;101208.22;5305009;28;20020;-76
2021/08/14 01:46:36;;;;;;;6.85;3.92;;;;;;;16.72;95.02;101216.59;5307090;27;20049;-77
2021/08/14 01:49:07;;;;;;;8.02;4.20;;;;;;;16.39;96.83;101215.63;5303577;27;20115;-76
2021/08/14 01:51:37;;;;;;;7.28;4.00;;;;;;;16.20;98.83;101212.16;5308507;27;20184;-77
2021/08/14 01:54:08;;;;;;;9.82;4.97;;;;;;;16.01;99.57;101199.94;5288917;27;20035;-78
2021/08/14 01:56:38;;;;;;;9.05;4.50;;;;;;;16.07;99.71;101208.38;5292619;27;20019;-77
2021/08/14 01:59:10;;;;;;;10.80;5.07;;;;;;;16.01;99.49;101206.03;5299868;27;20088;-78
2021/08/14 02:01:40;;;;;;;8.15;4.93;;;;;;;15.91;100.00;101210.03;5292690;27;20081;-76
2021/08/14 02:04:10;;;;;;;9.05;4.90;;;;;;;16.19;99.38;101207.78;5298617;27;20047;-77
2021/08/14 02:06:41;;;;;;;7.72;4.60;;;;;;;16.23;98.59;101206.72;5298805;27;20028;-77
2021/08/14 02:09:11;;;;;;;9.05;5.10;;;;;;;16.16;97.66;101204.44;5286023;27;20786;-76
2021/08/14 02:11:41;;;;;;;10.32;5.50;;;;;;;16.08;97.16;101210.09;5300063;27;20023;-77
2021/08/14 02:14:12;;;;;;;13.03;7.20;;;;;;;16.29;97.38;101206.44;5288466;27;20032;-78
2021/08/14 02:16:43;;;;;;;13.60;6.18;;;;;;;16.51;94.50;101204.47;5301273;27;20285;-76
2021/08/14 02:19:13;;;;;;;10.32;6.18;;;;;;;16.61;94.59;101210.16;5296972;27;20027;-76
2021/08/14 02:21:43;;;;;;;11.63;6.03;;;;;;;16.61;93.64;101215.44;5296123;27;20672;-77
2021/08/14 02:24:14;;;;;;;11.30;5.80;;;;;;;16.22;94.87;101220.84;5297134;27;20019;-77
2021/08/14 02:26:44;;;;;;;8.73;5.40;;;;;;;16.10;95.84;101223.22;5302468;27;20682;-78
2021/08/14 02:29:14;;;;;;;9.85;5.10;;;;;;;16.27;95.12;101218.84;5307483;27;20324;-77
2021/08/14 02:31:45;;;;;;;10.25;4.82;;;;;;;15.95;95.88;101214.25;5306412;27;20042;-77
2021/08/14 02:34:15;;;;;;;7.65;4.88;;;;;;;15.63;98.54;101211.41;5302150;27;20023;-77
2021/08/14 02:36:45;;;;;;;9.52;5.07;;;;;;;15.47;99.50;101211.25;5287777;27;20185;-77
2021/08/14 02:39:15;;;;;;;20.13;12.70;;;;;;;15.63;97.72;101209.63;5303190;27;20028;-77
2021/08/14 02:41:46;;;;;;;13.30;8.85;;;;;;;15.72;98.21;101209.19;5301797;27;20027;-77
2021/08/14 02:44:16;;;;;;;15.13;7.75;;;;;;;15.46;99.07;101198.13;5296190;27;20074;-77
2021/08/14 02:46:46;;;;;;;8.77;5.57;;;;;;;15.72;97.62;101200.44;5300931;27;20071;-78
2021/08/14 02:49:17;;;;;;;10.15;5.82;;;;;;;15.63;97.84;101199.09;5298319;27;20023;-76
2021/08/14 02:51:47;;;;;;;6.90;4.50;;;;;;;15.70;96.47;101195.22;5301955;27;20015;-76
2021/08/14 02:54:17;;;;;;;9.23;5.40;;;;;;;15.38;98.25;101197.66;5288547;27;20270;-76
2021/08/14 02:56:47;;;;;;;11.75;4.93;;;;;;;15.37;99.62;101190.66;5296054;27;20040;-77
2021/08/14 02:59:18;;;;;;;11.00;5.07;;;;;;;15.30;100.00;101195.34;5298115;27;20035;-78
2021/08/14 03:01:48;;;;;;;9.40;4.90;;;;;;;15.35;100.00;101196.00;5299986;27;20031;-77
2021/08/14 03:04:18;;;;;;;10.00;5.57;;;;;;;15.16;100.00;101199.50;5298251;27;20273;-77
2021/08/14 03:06:57;;;;;;;10.30;5.37;;;;;;;15.14;100.00;101198.69;5297346;27;20089;-77
2021/08/14 03:09:27;;;;;;;11.55;5.70;;;;;;;15.08;100.00;101189.31;5293693;27;20272;-77
2021/08/14 03:11:58;;;;;;;12.68;5.80;;;;;;;15.00;100.00;101194.03;5295550;27;20028;-77
2021/08/14 03:14:28;;;;;;;10.32;5.65;;;;;;;15.01;100.00;101189.63;5290144;27;20127;-77
2021/08/14 03:16:58;;;;;;;16.58;7.97;;;;;;;14.77;100.00;101195.09;5289842;27;20016;-77
2021/08/14 03:19:28;;;;;;;18.97;9.47;;;;;;;14.51;100.00;101188.31;5299043;27;20023;-77
2021/08/14 03:21:59;;;;;;;11.30;6.47;;;;;;;14.70;100.00;101196.28;5299138;27;20281;-77
2021/08/14 03:24:29;;;;;;;11.23;6.22;;;;;;;14.74;100.00;101197.88;5299773;27;20049;-78
2021/08/14 03:27:00;;;;;;;7.85;5.50;;;;;;;14.89;100.00;101198.94;5289138;27;20043;-77
2021/08/14 03:29:30;;;;;;;12.30;7.30;;;;;;;14.64;100.00;101205.31;5299142;27;20044;-77
2021/08/14 03:32:02;;;;;;;17.02;8.88;;;;;;;14.50;100.00;101207.66;5299729;27;20031;-77
2021/08/14 03:34:32;;;;;;;12.73;6.53;;;;;;;14.60;100.00;101203.69;5298886;27;20030;-76
2021/08/14 03:37:03;;;;;;;10.80;5.67;;;;;;;14.51;100.00;101198.84;5294178;27;20035;-76
2021/08/14 03:39:35;;;;;;;8.95;5.20;;;;;;;14.56;100.00;101204.75;5294177;27;20741;-78
2021/08/14 03:42:06;;;;;;;12.55;5.50;;;;;;;14.61;100.00;101205.41;5294830;27;20083;-77
2021/08/14 03:44:36;;;;;;;9.23;6.00;;;;;;;14.70;100.00;101196.28;5289765;27;20114;-77
2021/08/14 03:47:07;;;;;;;11.52;5.65;;;;;;;14.84;100.00;101200.88;5299603;27;20484;-78
2021/08/14 03:49:37;;;;;;;10.73;5.32;;;;;;;14.56;100.00;101199.50;5297745;27;20088;-77
2021/08/14 03:52:07;;;;;;;9.47;5.60;;;;;;;14.46;100.00;101198.16;5300416;27;20035;-77
2021/08/14 03:54:37;;;;;;;10.57;5.47;;;;;;;14.44;100.00;101207.03;5297676;27;20277;-77
2021/08/14 03:57:08;;;;;;;9.27;5.60;;;;;;;14.49;100.00;101205.06;5300492;27;20547;-78
2021/08/14 03:59:38;;;;;;;9.65;5.63;;;;;;;14.36;100.00;101203.84;5297139;27;20023;-78
2021/08/14 04:02:08;;;;;;;10.40;5.80;;;;;;;14.25;100.00;101206.91;5300600;27;20066;-78
2021/08/14 04:04:39;;;;;;;12.88;5.82;;;;;;;14.51;100.00;101219.00;5287503;27;20262;-77
2021/08/14 04:07:09;;;;;;;11.80;5.78;;;;;;;14.32;100.00;101207.53;5288163;27;20930;-79
2021/08/14 04:09:39;;;;;;;12.23;6.10;;;;;;;14.35;100.00;101203.00;5299258;27;20297;-79
2021/08/14 04:12:09;;;;;;;10.63;5.97;;;;;;;14.36;100.00;101193.34;5289246;27;20055;-79
2021/08/14 04:14:40;;;;;;;11.20;5.68;;;;;;;14.36;100.00;101198.59;5293719;28;20023;-79
2021/08/14 04:17:10;;;;;;;9.82;5.53;;;;;;;14.42;100.00;101195.72;5300838;27;20123;-79
2021/08/14 04:19:40;;;;;;;11.95;5.50;;;;;;;14.28;100.00;101185.75;5297330;27;20484;-79
2021/08/14 04:22:11;;;;;;;8.48;5.05;;;;;;;14.62;99.25;101193.97;5296777;27;20038;-79
2021/08/14 04:24:41;;;;;;;9.87;5.17;;;;;;;14.67;97.64;101197.28;5300882;27;20654;-78
2021/08/14 04:27:11;;;;;;;7.45;5.03;;;;;;;14.76;99.24;101201.28;5298327;27;20283;-79
2021/08/14 04:29:41;;;;;;;9.13;5.03;;;;;;;14.78;99.18;101196.81;5285708;28;20547;-79
2021/08/14 04:32:12;;;;;;;21.42;10.27;;;;;;;14.82;99.21;101184.31;5293001;28;20019;-79
2021/08/14 04:34:42;;;;;;;15.45;7.63;;;;;;;14.75;100.00;101192.53;5294085;27;20061;-79
2021/08/14 04:37:13;;;;;;;14.93;8.10;;;;;;;14.66;100.00;101197.31;5296450;27;20459;-79
2021/08/14 04:39:43;;;;;;;17.70;9.20;;;;;;;14.90;99.24;101194.50;5289349;28;20300;-79
2021/08/14 04:42:13;;;;;;;13.15;5.80;;;;;;;15.15;98.74;101206.53;5292110;28;20038;-79
2021/08/14 04:44:44;;;;;;;8.70;5.23;;;;;;;15.00;99.90;101212.47;5298445;28;20596;-79
2021/08/14 04:47:14;;;;;;;10.82;5.43;;;;;;;14.94;100.00;101202.22;5284765;28;20277;-79
2021/08/14 04:49:44;;;;;;;12.98;5.32;;;;;;;14.99;100.00;101202.84;5298564;27;20469;-79
2021/08/14 04:52:15;;;;;;;12.60;5.32;;;;;;;15.15;100.00;101203.06;5302513;28;20044;-78
2021/08/14 04:54:45;;;;;;;9.15;5.18;;;;;;;15.14;100.00;101204.81;5299510;27;20028;-79
2021/08/14 04:57:16;;;;;;;10.15;5.30;;;;;;;15.22;100.00;101202.69;5297958;28;20034;-79
2021/08/14 04:59:47;;;;;;;8.65;4.65;;;;;;;15.51;100.00;101204.91;5297192;27;20031;-79
2021/08/14 05:02:18;;;;;;;9.25;4.70;;;;;;;15.76;97.07;101197.59;5303267;27;20046;-79
2021/08/14 05:04:49;;;;;;;12.45;4.85;;;;;;;15.82;96.82;101202.56;5299503;27;20033;-79
2021/08/14 05:07:19;;;;;;;10.05;4.18;;;;;;;16.14;95.44;101204.53;5297838;28;20118;-79
2021/08/14 05:09:50;;;;;;;10.45;4.63;;;;;;;16.16;95.64;101204.44;5288196;28;20023;-79
2021/08/14 05:12:20;;;;;;;8.95;4.90;;;;;;;16.15;94.14;101208.00;5300771;27;20054;-78
2021/08/14 05:14:51;;;;;;;10.18;4.28;;;;;;;16.27;94.15;101216.22;5296423;28;20019;-79
2021/08/14 05:17:21;;;;;;;9.17;4.30;;;;;;;16.28;94.57;101210.00;5295062;28;20501;-79
2021/08/14 05:19:51;;;;;;;10.37;4.33;;;;;;;15.99;97.19;101207.91;5296861;28;20312;-79
2021/08/14 05:22:21;;;;;;;8.57;4.23;;;;;;;16.07;98.33;101210.19;5297925;28;20277;-79
2021/08/14 05:24:52;;;;;;;7.50;4.22;;;;;;;16.18;97.18;101210.53;5290224;27;20290;-79
2021/08/14 05:27:22;;;;;;;12.50;3.95;;;;;;;16.33;97.31;101205.34;5304070;27;20404;-79
2021/08/14 05:29:52;;;;;;;7.72;4.10;;;;;;;16.47;95.87;101208.22;5293706;27;20028;-79
2021/08/14 05:32:23;;;;;;;8.35;4.50;;;;;;;16.68;95.33;101207.13;5301960;27;20023;-79
2021/08/14 05:34:53;;;;;;;9.13;4.47;;;;;;;16.31;97.78;101211.63;5300505;27;20015;-79
2021/08/14 05:37:23;;;;;;;11.10;4.68;;;;;;;16.63;95.84;101208.28;5298000;27;20287;-79
2021/08/14 05:39:54;;;;;;;25.33;13.07;;;;;;;16.55;97.69;101224.50;5300922;27;20019;-79
2021/08/14 05:42:24;;;;;;;68.97;37.63;;;;;;;17.04;94.19;101218.44;5304031;27;20024;-79
2021/08/14 05:44:54;;;;;;;105.95;60.97;;;;;;;17.42;95.05;101218.19;5300440;27;20485;-79
2021/08/14 05:47:24;;;;;;;114.55;67.60;;;;;;;18.08;89.18;101211.00;5288233;27;20039;-79
2021/08/14 05:49:55;;;;;;;20.90;11.90;;;;;;;20.04;80.79;101205.16;5293006;27;20019;-79
2021/08/14 05:52:25;;;;;;;16.80;7.73;;;;;;;21.75;75.11;101199.50;5306592;27;20069;-79
2021/08/14 05:54:55;;;;;;;19.52;9.73;;;;;;;24.19;66.68;101193.78;5306578;27;20272;-80
2021/08/14 05:57:26;;;;;;;13.55;8.50;;;;;;;24.27;67.06;101190.47;5307000;27;20055;-79
2021/08/14 05:59:56;;;;;;;9.27;5.20;;;;;;;26.38;60.55;101185.19;5296350;27;20023;-80
2021/08/14 06:02:26;;;;;;;8.87;4.37;;;;;;;26.49;58.74;101188.63;5305618;27;20608;-79
2021/08/14 06:04:56;;;;;;;7.68;4.18;;;;;;;25.63;61.82;101190.19;5305570;27;20053;-79
2021/08/14 06:07:27;;;;;;;7.50;3.57;;;;;;;22.99;69.29;101195.44;5300929;27;20032;-79
2021/08/14 06:09:57;;;;;;;8.63;4.20;;;;;;;22.48;70.44;101197.69;5300448;27;20292;-79
2021/08/14 06:12:27;;;;;;;7.80;3.50;;;;;;;21.64;73.75;101201.25;5306266;27;20498;-79
2021/08/14 06:17:36;;;;;;;9.57;3.65;;;;;;;20.64;76.90;101205.59;5232765;28;20037;-76
2021/08/14 06:20:07;;;;;;;7.00;3.53;;;;;;;19.75;82.17;101206.13;5232388;28;20025;-76
2021/08/14 06:22:39;;;;;;;9.40;3.80;;;;;;;20.05;81.45;101200.69;5224759;28;20055;-75
2021/08/14 06:25:11;;;;;;;9.50;3.45;;;;;;;20.61;80.58;101201.34;5234350;28;20035;-76
2021/08/14 06:27:42;;;;;;;9.27;3.10;;;;;;;23.02;72.64;101187.19;5230852;28;20486;-76
2021/08/14 06:30:12;;;;;;;8.20;3.00;;;;;;;24.71;64.50;101177.81;5230533;28;20048;-76
2021/08/14 06:32:43;;;;;;;9.82;3.67;;;;;;;25.26;63.10;101173.00;5235514;28;20039;-76
2021/08/14 06:35:13;;;;;;;8.00;3.07;;;;;;;26.08;61.01;101179.94;5213418;28;20028;-76
2021/08/14 06:37:44;;;;;;;9.88;2.97;;;;;;;27.12;57.02;101169.25;5227724;28;20036;-77
2021/08/14 06:40:15;;;;;;;7.13;2.80;;;;;;;27.97;56.34;101168.06;5232271;28;20864;-77
2021/08/14 06:42:45;;;;;;;7.18;3.00;;;;;;;29.36;53.83;101164.41;5232083;28;20055;-77
2021/08/14 06:45:16;;;;;;;8.83;3.07;;;;;;;30.26;53.14;101170.91;5232849;28;20129;-77
2021/08/14 06:47:46;;;;;;;8.83;2.87;;;;;;;30.71;50.08;101158.66;5227846;28;20832;-77
2021/08/14 06:50:18;;;;;;;7.85;3.08;;;;;;;30.41;52.16;101164.66;5235320;28;20067;-77
2021/08/14 06:52:48;;;;;;;11.38;3.20;;;;;;;30.99;50.64;101152.72;5231717;28;20028;-77
2021/08/14 06:55:19;;;;;;;6.27;2.20;;;;;;;32.33;49.11;101148.00;5232607;28;20025;-77
2021/08/14 06:57:50;;;;;;;7.53;2.90;;;;;;;31.02;50.78;101155.06;5233037;28;20017;-77
2021/08/14 07:00:20;;;;;;;12.17;2.93;;;;;;;31.08;49.28;101154.41;5234179;28;20016;-76
2021/08/14 07:02:51;;;;;;;9.20;2.97;;;;;;;32.80;47.93;101141.41;5232312;28;20052;-77
2021/08/14 07:05:22;;;;;;;8.35;3.08;;;;;;;31.22;49.18;101147.47;5233799;28;20414;-77
2021/08/14 07:07:52;;;;;;;9.07;2.90;;;;;;;31.65;49.58;101147.84;5224859;28;20040;-77
2021/08/14 07:10:22;;;;;;;8.50;3.10;;;;;;;31.68;49.42;101135.88;5231270;28;20033;-77
2021/08/14 07:12:52;;;;;;;8.67;3.30;;;;;;;32.16;49.18;101146.38;5232715;28;20039;-77
2021/08/14 07:15:23;;;;;;;8.30;3.00;;;;;;;34.08;45.22;101143.47;5231646;28;20406;-77
2021/08/14 07:17:53;;;;;;;7.60;2.83;;;;;;;32.03;47.18;101141.56;5228942;28;20051;-77
2021/08/14 07:20:24;;;;;;;7.83;3.00;;;;;;;33.21;45.72;101134.56;5228839;28;20028;-77
2021/08/14 07:22:54;;;;;;;9.57;2.88;;;;;;;34.00;45.28;101131.88;5230376;28;20276;-77
2021/08/14 07:25:25;;;;;;;7.82;2.85;;;;;;;32.10;48.15;101139.84;5232663;28;20040;-77
2021/08/14 07:27:56;;;;;;;9.27;2.80;;;;;;;34.17;46.05;101127.91;5232941;28;20028;-77
2021/08/14 07:30:26;;;;;;;10.40;3.13;;;;;;;32.65;46.97;101143.19;5233589;28;20644;-77
2021/08/14 07:32:56;;;;;;;10.02;2.92;;;;;;;34.59;44.66;101144.22;5232761;28;20055;-77
2021/08/14 07:35:27;;;;;;;10.03;3.13;;;;;;;32.99;46.69;101151.69;5232498;28;20016;-77
2021/08/14 07:37:57;;;;;;;9.88;3.17;;;;;;;31.11;48.45;101143.28;5225159;28;20040;-77
2021/08/14 07:40:28;;;;;;;8.83;2.83;;;;;;;30.09;51.22;101151.13;5230658;28;20028;-77
2021/08/14 07:42:58;;;;;;;10.52;2.88;;;;;;;30.65;49.97;101139.56;5234881;28;20032;-77
2021/08/14 07:45:29;;;;;;;9.82;3.50;;;;;;;31.24;49.33;101145.44;5231194;28;20029;-77
2021/08/14 07:48:02;;;;;;;8.18;2.97;;;;;;;33.23;47.08;101148.75;5226325;28;20031;-77
2021/08/14 07:50:34;;;;;;;13.80;3.40;;;;;;;30.63;51.24;101158.63;5225850;28;20702;-76
2021/08/14 07:53:05;;;;;;;8.77;3.25;;;;;;;30.09;52.27;101143.03;5227590;28;20062;-76
2021/08/14 07:55:35;;;;;;;11.75;2.95;;;;;;;30.90;50.89;101140.25;5225614;28;20238;-76
2021/08/14 07:58:12;;;;;;;11.10;3.27;;;;;;;30.49;50.11;101140.41;5226802;28;20090;-76
2021/08/14 08:00:42;;;;;;;13.07;3.33;;;;;;;29.07;52.41;101143.19;5223902;28;20028;-77
2021/08/14 08:03:13;;;;;;;9.67;3.27;;;;;;;28.69;53.15;101142.75;5225397;28;20158;-77
2021/08/14 08:05:43;;;;;;;9.90;3.40;;;;;;;25.66;60.51;101152.44;5226497;28;20287;-78
2021/08/14 08:08:13;;;;;;;9.33;3.17;;;;;;;26.49;60.34;101145.72;5207117;28;20275;-78
2021/08/14 08:10:44;;;;;;;13.13;4.13;;;;;;;26.15;58.50;101138.19;5228397;28;20028;-77
2021/08/14 08:13:14;;;;;;;11.00;3.85;;;;;;;26.45;60.66;101143.41;5229367;28;20143;-77
2021/08/14 08:15:44;;;;;;;13.63;3.50;;;;;;;25.19;61.08;101139.72;5226015;28;20108;-76
2021/08/14 08:18:15;;;;;;;12.85;3.58;;;;;;;25.86;61.42;101129.25;5226155;28;20031;-76
2021/08/14 08:20:45;;;;;;;11.88;3.92;;;;;;;26.27;61.84;101137.06;5228561;28;20394;-77
2021/08/14 08:23:16;;;;;;;13.15;3.78;;;;;;;25.29;61.55;101139.75;5231926;28;20115;-77
2021/08/14 08:25:47;;;;;;;17.40;4.07;;;;;;;25.41;61.36;101128.81;5228727;28;20028;-77
2021/08/14 08:28:21;;;;;;;9.40;3.33;;;;;;;27.01;58.77;101126.41;5231903;28;20028;-76
2021/08/14 08:30:52;;;;;;;13.07;3.63;;;;;;;29.39;54.33;101121.00;5230224;28;20787;-76
2021/08/14 08:33:22;;;;;;;10.43;3.55;;;;;;;30.05;52.56;101119.28;5217943;28;20060;-76
2021/08/14 08:35:52;;;;;;;9.13;3.45;;;;;;;29.87;51.69;101121.19;5225598;28;20020;-75
2021/08/14 08:38:23;;;;;;;12.20;3.80;;;;;;;29.69;49.98;101106.97;5222171;28;20490;-75
2021/08/14 08:40:54;;;;;;;11.88;4.28;;;;;;;29.33;51.91;101116.25;5227188;28;20365;-76
2021/08/14 08:43:25;;;;;;;11.35;3.63;;;;;;;29.85;51.49;101107.03;5225653;28;20074;-76
2021/08/14 08:45:55;;;;;;;9.15;3.30;;;;;;;29.97;52.84;101108.41;5225639;28;20029;-76
2021/08/14 08:48:25;;;;;;;7.83;3.00;;;;;;;30.71;49.72;101101.09;5229806;28;20342;-76
2021/08/14 08:50:56;;;;;;;9.25;3.20;;;;;;;31.40;49.29;101102.97;5227116;28;21148;-77
2021/08/14 08:53:26;;;;;;;11.20;3.38;;;;;;;31.91;48.51;101094.28;5230195;28;20037;-76
2021/08/14 08:55:57;;;;;;;11.30;3.67;;;;;;;33.13;47.44;101096.69;5224994;28;20021;-76
2021/08/14 08:58:27;;;;;;;14.23;4.07;;;;;;;32.99;46.17;101092.91;5221573;28;20124;-75
2021/08/14 09:00:57;;;;;;;12.32;4.10;;;;;;;31.52;48.96;101095.34;5225624;28;20021;-78
2021/08/14 09:03:29;;;;;;;12.27;4.30;;;;;;;32.17;47.55;101089.41;5226028;28;20140;-78
2021/08/14 09:06:00;;;;;;;12.18;3.83;;;;;;;32.93;46.94;101090.09;5226845;28;20032;-77
2021/08/14 09:08:30;;;;;;;9.85;4.15;;;;;;;30.34;50.99;101098.03;5224892;28;20350;-77
2021/08/14 09:11:12;;;;;;;11.88;4.63;;;;;;;29.10;53.35;101104.34;5226872;28;20082;-77
2021/08/14 09:14:03;;;;;;;11.27;4.30;;;;;;;28.49;55.07;101092.78;5224198;28;20116;-78
2021/08/14 09:16:33;;;;;;;10.93;4.00;;;;;;;27.59;56.56;101096.53;5220994;28;20494;-78
2021/08/14 09:19:04;;;;;;;10.65;3.95;;;;;;;27.93;55.94;101086.84;5222309;28;20052;-77
2021/08/14 09:21:41;;;;;;;14.40;4.72;;;;;;;27.07;58.46;101085.59;5225986;28;20035;-77
2021/08/14 09:24:29;;;;;;;13.98;4.70;;;;;;;27.57;57.77;101090.47;5226578;28;20037;-77
2021/08/14 09:27:02;;;;;;;11.77;4.18;;;;;;;27.42;56.96;101089.25;5228185;28;20453;-77
2021/08/14 09:29:38;;;;;;;8.65;3.90;;;;;;;28.14;55.85;101086.56;5224869;28;20051;-77
2021/08/14 09:32:09;;;;;;;;;;;;;;;27.68;56.98;101079.50;5225478;28;20028;-77
2021/08/14 09:34:46;;;;;;;9.25;3.80;;;;;;;28.40;55.81;101082.09;5226964;28;19932;-77
2021/08/14 09:37:18;;;;;;;11.07;3.50;;;;;;;28.61;55.26;101075.38;5227313;28;20381;-77
2021/08/14 09:39:52;;;;;;;10.90;4.00;;;;;;;28.78;55.47;101067.28;5232252;28;20119;-77
2021/08/14 09:42:24;;;;;;;14.88;4.03;;;;;;;28.47;55.75;101075.13;5233067;28;20044;-76
2021/08/14 09:45:13;;;;;;;10.40;3.67;;;;;;;27.88;55.70;101069.50;5230693;28;20755;-76
2021/08/14 09:47:45;;;;;;;9.63;3.90;;;;;;;27.59;55.28;101066.97;5216730;28;20060;-76
2021/08/14 09:50:16;;;;;;;15.75;4.15;;;;;;;27.02;56.74;101069.91;5222019;28;20099;-76
2021/08/14 09:52:51;;;;;;;23.20;11.03;;;;;;;26.88;57.98;101067.69;5230475;28;20025;-76
2021/08/14 09:55:23;;;;;;;58.95;34.67;;;;;;;26.46;59.37;101061.97;5221736;28;20311;-76
2021/08/14 09:58:00;;;;;;;15.05;4.88;;;;;;;26.65;58.45;101059.31;5229006;28;20632;-76
2021/08/14 10:00:31;;;;;;;10.63;4.15;;;;;;;26.11;60.22;101064.41;5229154;28;20036;-76
2021/08/14 10:03:03;;;;;;;12.63;4.03;;;;;;;25.93;60.80;101064.28;5232476;28;20029;-76
2021/08/14 10:05:34;;;;;;;12.02;3.70;;;;;;;26.26;61.16;101065.66;5225221;28;20846;-76
2021/08/14 10:08:05;;;;;;;12.60;4.10;;;;;;;26.35;60.60;101062.16;5224102;28;20024;-76
2021/08/14 10:10:36;;;;;;;9.98;4.13;;;;;;;26.73;58.77;101053.06;5227857;28;20094;-76
2021/08/14 10:13:07;;;;;;;10.48;4.25;;;;;;;26.47;60.09;101055.63;5231111;28;20091;-76
2021/08/14 10:15:38;;;;;;;12.52;3.53;;;;;;;27.48;59.52;101051.03;5231447;28;20127;-76
2021/08/14 10:18:08;;;;;;;9.52;3.88;;;;;;;28.01;57.48;101033.19;5233851;28;20095;-76
2021/08/14 10:20:38;;;;;;;9.90;3.70;;;;;;;27.77;57.75;101035.63;5231641;28;20124;-76
2021/08/14 10:23:10;;;;;;;9.80;3.57;;;;;;;28.07;57.41;101021.81;5230178;28;20139;-76
2021/08/14 10:25:42;;;;;;;12.60;3.90;;;;;;;27.48;56.36;101024.19;5223301;28;20431;-76
2021/08/14 10:28:13;;;;;;;9.43;3.50;;;;;;;27.34;56.59;101032.78;5231935;28;20025;-76
2021/08/14 10:30:52;;;;;;;10.43;3.47;;;;;;;27.19;59.23;101028.91;5226716;28;20032;-76
2021/08/14 10:33:29;;;;;;;11.63;3.88;;;;;;;27.18;57.58;101035.28;5233097;28;20027;-76
2021/08/14 10:36:20;;;;;;;11.80;3.88;;;;;;;27.25;57.44;101032.84;5230544;28;20079;-76
2021/08/14 10:38:50;;;;;;;12.48;4.38;;;;;;;26.89;57.87;101033.66;5221768;28;20031;-76
2021/08/14 10:41:37;;;;;;;11.43;4.05;;;;;;;27.12;57.94;101033.16;5233729;28;20029;-76
2021/08/14 10:44:07;;;;;;;10.93;4.03;;;;;;;27.18;58.77;101029.91;5232060;28;20047;-76
2021/08/14 10:46:37;;;;;;;11.45;4.32;;;;;;;27.02;58.69;101026.97;5222642;28;20112;-76
2021/08/14 10:49:34;;;;;;;14.03;4.30;;;;;;;27.35;58.47;101021.03;5230933;28;20033;-76
2021/08/14 10:52:04;;;;;;;15.88;4.57;;;;;;;27.15;57.63;101016.78;5223863;28;20037;-76
2021/08/14 10:54:34;;;;;;;8.80;3.67;;;;;;;27.09;59.55;101008.44;5218074;28;20541;-76
2021/08/14 10:57:09;;;;;;;21.67;11.27;;;;;;;27.02;60.83;100989.41;5232253;28;20039;-76
2021/08/14 10:59:39;;;;;;;17.77;6.82;;;;;;;26.78;59.75;101002.47;5234192;28;20035;-76
2021/08/14 11:02:09;;;;;;;13.70;4.83;;;;;;;26.64;59.75;100995.88;5231008;28;20059;-76
2021/08/14 11:05:00;;;;;;;12.67;4.80;;;;;;;26.55;59.91;100983.38;5234031;28;20063;-76
2021/08/14 11:07:31;;;;;;;12.48;5.70;;;;;;;26.68;61.43;100976.69;5225530;28;20024;-76
2021/08/14 11:10:01;;;;;;;13.32;5.13;;;;;;;26.57;62.47;100981.38;5229026;28;20474;-76
2021/08/14 11:12:33;;;;;;;7.63;3.90;;;;;;;26.62;59.64;100982.66;5232179;28;20037;-76
2021/08/14 11:15:23;;;;;;;15.30;5.18;;;;;;;26.45;59.46;100980.69;5234250;28;20032;-76
2021/08/14 11:17:56;;;;;;;13.63;5.25;;;;;;;26.47;59.79;100969.81;5228314;28;20039;-76
2021/08/14 11:20:26;;;;;;;12.70;4.10;;;;;;;26.44;60.16;100968.28;5232534;28;20482;-76
2021/08/14 11:22:59;;;;;;;13.48;5.78;;;;;;;26.18;60.43;100963.69;5232749;28;20021;-76
2021/08/14 11:25:40;;;;;;;11.52;4.85;;;;;;;25.96;61.05;100972.00;5230322;28;20123;-76
2021/08/14 11:28:12;;;;;;;12.20;4.50;;;;;;;26.24;60.83;100957.75;5234424;28;20779;-76
2021/08/14 11:30:46;;;;;;;12.40;4.43;;;;;;;26.42;60.08;100964.03;5230303;28;20039;-76
2021/08/14 11:33:23;;;;;;;9.13;4.43;;;;;;;26.31;60.31;100956.19;5226782;28;20025;-75
2021/08/14 11:36:03;;;;;;;12.82;5.20;;;;;;;26.42;61.14;100958.69;5231162;28;20016;-75
2021/08/14 11:38:36;;;;;;;9.68;4.13;;;;;;;26.47;60.42;100961.75;5221929;28;20403;-76
2021/08/14 11:41:15;;;;;;;10.50;4.35;;;;;;;26.38;60.51;100952.75;5232200;28;20020;-76